sensor_id;sensor_type;location;lat;lon;timestamp;pressure;altitude;pressure_sealevel;temperature;humidity
56400;BME280;42298;53.638;9.876;2022-10-18T00:01:02;102237.97;;;19.02;72.57
56400;BME280;42298;53.638;9.876;2022-10-18T00:03:29;102236.63;;;19.08;72.41
56400;BME280;42298;53.638;9.876;2022-10-18T00:05:54;102249.94;;;19.11;72.25
56400;BME280;42298;53.638;9.876;2022-10-18T00:08:20;102238.28;;;19.09;72.05
56400;BME280;42298;53.638;9.876;2022-10-18T00:10:46;102246.66;;;19.09;71.81
56400;BME280;42298;53.638;9.876;2022-10-18T00:13:11;102248.78;;;19.12;72.09
56400;BME280;42298;53.638;9.876;2022-10-18T00:15:37;102252.75;;;19.11;71.85
56400;BME280;42298;53.638;9.876;2022-10-18T00:18:02;102253.88;;;19.02;72.32
56400;BME280;42298;53.638;9.876;2022-10-18T00:20:28;102260.31;;;18.85;72.96
56400;BME280;42298;53.638;9.876;2022-10-18T00:22:53;102252.91;;;18.80;72.76
56400;BME280;42298;53.638;9.876;2022-10-18T00:25:19;102256.03;;;18.79;72.96
56400;BME280;42298;53.638;9.876;2022-10-18T00:27:44;102254.69;;;18.93;72.87
56400;BME280;42298;53.638;9.876;2022-10-18T00:30:09;102274.59;;;18.83;72.64
56400;BME280;42298;53.638;9.876;2022-10-18T00:32:39;102263.91;;;18.77;73.52
56400;BME280;42298;53.638;9.876;2022-10-18T00:35:06;102274.09;;;18.81;72.82
56400;BME280;42298;53.638;9.876;2022-10-18T00:37:34;102280.31;;;18.78;73.54
56400;BME280;42298;53.638;9.876;2022-10-18T00:39:59;102279.19;;;18.79;73.05
56400;BME280;42298;53.638;9.876;2022-10-18T00:42:29;102282.47;;;18.81;73.27
56400;BME280;42298;53.638;9.876;2022-10-18T00:45:17;102281.97;;;18.79;72.90
56400;BME280;42298;53.638;9.876;2022-10-18T00:47:44;102285.56;;;18.80;73.01
56400;BME280;42298;53.638;9.876;2022-10-18T00:50:11;102271.78;;;18.66;73.05
56400;BME280;42298;53.638;9.876;2022-10-18T00:52:41;102276.56;;;18.66;73.44
56400;BME280;42298;53.638;9.876;2022-10-18T00:55:07;102281.13;;;18.62;73.95
56400;BME280;42298;53.638;9.876;2022-10-18T00:57:33;102273.91;;;18.61;73.67
56400;BME280;42298;53.638;9.876;2022-10-18T00:59:59;102275.22;;;18.55;73.20
56400;BME280;42298;53.638;9.876;2022-10-18T01:02:25;102272.59;;;18.58;73.48
56400;BME280;42298;53.638;9.876;2022-10-18T01:04:51;102259.63;;;18.54;73.49
56400;BME280;42298;53.638;9.876;2022-10-18T01:10:35;102277.34;;;18.58;73.66
56400;BME280;42298;53.638;9.876;2022-10-18T01:13:26;102265.53;;;18.52;73.21
56400;BME280;42298;53.638;9.876;2022-10-18T01:32:33;102285.06;;;18.52;72.51
56400;BME280;42298;53.638;9.876;2022-10-18T01:35:02;102267.31;;;18.48;72.40
56400;BME280;42298;53.638;9.876;2022-10-18T01:37:31;102279.81;;;18.51;72.49
56400;BME280;42298;53.638;9.876;2022-10-18T01:39:58;102280.63;;;18.43;73.18
56400;BME280;42298;53.638;9.876;2022-10-18T01:42:24;102268.25;;;18.35;73.10
56400;BME280;42298;53.638;9.876;2022-10-18T01:44:51;102286.84;;;18.40;72.95
56400;BME280;42298;53.638;9.876;2022-10-18T01:47:17;102275.03;;;18.43;72.69
56400;BME280;42298;53.638;9.876;2022-10-18T01:49:43;102285.22;;;18.39;72.05
56400;BME280;42298;53.638;9.876;2022-10-18T01:52:12;102280.13;;;18.41;71.32
56400;BME280;42298;53.638;9.876;2022-10-18T01:54:41;102295.53;;;18.38;72.52
56400;BME280;42298;53.638;9.876;2022-10-18T01:57:20;102287.63;;;18.32;72.63
56400;BME280;42298;53.638;9.876;2022-10-18T01:59:50;102301.63;;;18.40;72.25
56400;BME280;42298;53.638;9.876;2022-10-18T02:10:21;102293.13;;;18.54;71.74
56400;BME280;42298;53.638;9.876;2022-10-18T02:12:50;102290.66;;;18.44;71.84
56400;BME280;42298;53.638;9.876;2022-10-18T02:15:25;102305.72;;;18.43;72.74
56400;BME280;42298;53.638;9.876;2022-10-18T02:17:52;102296.69;;;18.46;72.54
56400;BME280;42298;53.638;9.876;2022-10-18T02:20:21;102287.22;;;18.47;73.33
56400;BME280;42298;53.638;9.876;2022-10-18T02:22:49;102278.50;;;18.57;72.84
56400;BME280;42298;53.638;9.876;2022-10-18T02:25:21;102296.41;;;18.73;72.00
56400;BME280;42298;53.638;9.876;2022-10-18T02:27:47;102292.16;;;18.75;71.55
56400;BME280;42298;53.638;9.876;2022-10-18T02:30:13;102287.38;;;18.76;70.95
56400;BME280;42298;53.638;9.876;2022-10-18T02:32:51;102292.00;;;18.80;70.81
56400;BME280;42298;53.638;9.876;2022-10-18T02:35:30;102285.56;;;18.80;71.51
56400;BME280;42298;53.638;9.876;2022-10-18T02:37:57;102281.31;;;18.74;71.83
56400;BME280;42298;53.638;9.876;2022-10-18T02:40:24;102291.34;;;18.75;71.94
56400;BME280;42298;53.638;9.876;2022-10-18T02:42:53;102293.63;;;18.73;72.01
56400;BME280;42298;53.638;9.876;2022-10-18T02:45:19;102288.69;;;18.70;71.58
56400;BME280;42298;53.638;9.876;2022-10-18T02:47:45;102278.19;;;18.67;71.33
56400;BME280;42298;53.638;9.876;2022-10-18T02:50:10;102278.50;;;18.74;71.28
56400;BME280;42298;53.638;9.876;2022-10-18T02:52:36;102282.59;;;18.68;71.88
56400;BME280;42298;53.638;9.876;2022-10-18T02:55:02;102277.84;;;18.68;70.55
56400;BME280;42298;53.638;9.876;2022-10-18T02:57:27;102283.63;;;18.72;69.88
56400;BME280;42298;53.638;9.876;2022-10-18T02:59:54;102284.94;;;18.66;70.22
56400;BME280;42298;53.638;9.876;2022-10-18T03:02:19;102273.91;;;18.61;70.47
56400;BME280;42298;53.638;9.876;2022-10-18T03:04:44;102279.31;;;18.57;70.17
56400;BME280;42298;53.638;9.876;2022-10-18T03:07:10;102280.16;;;18.49;70.52
56400;BME280;42298;53.638;9.876;2022-10-18T03:09:35;102262.91;;;18.39;70.97
56400;BME280;42298;53.638;9.876;2022-10-18T03:12:00;102254.53;;;18.39;72.00
56400;BME280;42298;53.638;9.876;2022-10-18T03:14:26;102265.88;;;18.51;71.52
56400;BME280;42298;53.638;9.876;2022-10-18T03:16:51;102260.94;;;18.39;71.57
56400;BME280;42298;53.638;9.876;2022-10-18T03:19:16;102254.53;;;18.39;72.35
56400;BME280;42298;53.638;9.876;2022-10-18T03:21:41;102251.72;;;18.39;72.28
56400;BME280;42298;53.638;9.876;2022-10-18T03:24:07;102252.06;;;18.37;72.50
56400;BME280;42298;53.638;9.876;2022-10-18T03:26:32;102260.72;;;18.36;71.69
56400;BME280;42298;53.638;9.876;2022-10-18T03:28:57;102256.94;;;18.32;72.47
56400;BME280;42298;53.638;9.876;2022-10-18T03:31:23;102260.84;;;18.31;72.74
56400;BME280;42298;53.638;9.876;2022-10-18T03:33:48;102262.38;;;18.37;72.23
56400;BME280;42298;53.638;9.876;2022-10-18T03:36:13;102261.56;;;18.36;71.68
56400;BME280;42298;53.638;9.876;2022-10-18T03:38:39;102268.25;;;18.35;72.14
56400;BME280;42298;53.638;9.876;2022-10-18T03:41:05;102273.22;;;18.38;71.90
56400;BME280;42298;53.638;9.876;2022-10-18T03:43:33;102275.69;;;18.40;71.30
56400;BME280;42298;53.638;9.876;2022-10-18T03:45:59;102263.31;;;18.32;70.89
56400;BME280;42298;53.638;9.876;2022-10-18T03:48:25;102254.63;;;18.34;70.96
56400;BME280;42298;53.638;9.876;2022-10-18T03:50:51;102252.69;;;18.34;71.16
56400;BME280;42298;53.638;9.876;2022-10-18T03:53:16;102259.59;;;18.37;70.30
56400;BME280;42298;53.638;9.876;2022-10-18T03:55:41;102255.13;;;18.27;71.05
56400;BME280;42298;53.638;9.876;2022-10-18T03:58:08;102246.25;;;18.25;70.70
56400;BME280;42298;53.638;9.876;2022-10-18T04:00:34;102253.66;;;18.30;71.11
56400;BME280;42298;53.638;9.876;2022-10-18T04:03:00;102253.84;;;18.33;70.67
56400;BME280;42298;53.638;9.876;2022-10-18T04:05:26;102245.94;;;18.27;69.13
56400;BME280;42298;53.638;9.876;2022-10-18T04:07:55;102250.84;;;18.21;69.36
56400;BME280;42298;53.638;9.876;2022-10-18T04:10:21;102253.13;;;18.19;69.81
56400;BME280;42298;53.638;9.876;2022-10-18T04:12:46;102249.50;;;18.10;69.68
56400;BME280;42298;53.638;9.876;2022-10-18T04:15:12;102252.75;;;18.04;70.63
56400;BME280;42298;53.638;9.876;2022-10-18T04:17:37;102265.06;;;18.03;70.36
56400;BME280;42298;53.638;9.876;2022-10-18T04:20:03;102258.94;;;17.92;70.53
56400;BME280;42298;53.638;9.876;2022-10-18T04:22:28;102244.81;;;17.89;70.83
56400;BME280;42298;53.638;9.876;2022-10-18T04:24:53;102251.09;;;17.94;70.46
56400;BME280;42298;53.638;9.876;2022-10-18T04:27:21;102241.88;;;17.85;70.76
56400;BME280;42298;53.638;9.876;2022-10-18T04:29:46;102246.97;;;17.92;70.98
56400;BME280;42298;53.638;9.876;2022-10-18T04:32:13;102234.63;;;17.84;70.74
56400;BME280;42298;53.638;9.876;2022-10-18T04:34:38;102236.13;;;17.82;70.52
56400;BME280;42298;53.638;9.876;2022-10-18T04:37:04;102238.59;;;17.83;70.93
56400;BME280;42298;53.638;9.876;2022-10-18T04:39:29;102239.75;;;17.91;70.83
56400;BME280;42298;53.638;9.876;2022-10-18T04:41:54;102249.09;;;17.95;70.98
56400;BME280;42298;53.638;9.876;2022-10-18T04:44:20;102248.47;;;17.98;70.89
56400;BME280;42298;53.638;9.876;2022-10-18T04:46:45;102247.34;;;17.99;70.28
56400;BME280;42298;53.638;9.876;2022-10-18T04:49:10;102250.13;;;17.99;70.17
56400;BME280;42298;53.638;9.876;2022-10-18T04:51:36;102243.72;;;18.07;70.52
56400;BME280;42298;53.638;9.876;2022-10-18T04:54:01;102244.91;;;18.06;69.64
56400;BME280;42298;53.638;9.876;2022-10-18T04:56:26;102247.88;;;18.09;69.44
56400;BME280;42298;53.638;9.876;2022-10-18T04:58:52;102257.03;;;18.10;69.14
56400;BME280;42298;53.638;9.876;2022-10-18T05:01:17;102250.94;;;17.99;70.52
56400;BME280;42298;53.638;9.876;2022-10-18T05:03:43;102265.50;;;17.96;70.68
56400;BME280;42298;53.638;9.876;2022-10-18T05:06:08;102240.41;;;17.88;71.38
56400;BME280;42298;53.638;9.876;2022-10-18T05:08:34;102255.38;;;18.00;71.63
56400;BME280;42298;53.638;9.876;2022-10-18T05:11:00;102254.56;;;18.00;71.50
56400;BME280;42298;53.638;9.876;2022-10-18T05:13:26;102244.06;;;18.05;71.35
56400;BME280;42298;53.638;9.876;2022-10-18T05:15:51;102245.41;;;18.08;71.81
56400;BME280;42298;53.638;9.876;2022-10-18T05:18:17;102239.50;;;18.18;71.51
56400;BME280;42298;53.638;9.876;2022-10-18T05:20:42;102243.16;;;18.27;70.72
56400;BME280;42298;53.638;9.876;2022-10-18T05:23:07;102249.38;;;18.24;71.13
56400;BME280;42298;53.638;9.876;2022-10-18T05:25:40;102256.09;;;18.23;71.43
56400;BME280;42298;53.638;9.876;2022-10-18T05:28:05;102254.31;;;18.27;71.99
56400;BME280;42298;53.638;9.876;2022-10-18T05:30:31;102252.03;;;18.29;71.23
56400;BME280;42298;53.638;9.876;2022-10-18T05:32:56;102247.06;;;18.17;71.55
56400;BME280;42298;53.638;9.876;2022-10-18T05:35:21;102246.25;;;18.17;71.51
56400;BME280;42298;53.638;9.876;2022-10-18T05:37:47;102251.97;;;18.20;71.72
56400;BME280;42298;53.638;9.876;2022-10-18T05:40:12;102245.59;;;18.28;71.09
56400;BME280;42298;53.638;9.876;2022-10-18T05:42:37;102232.81;;;18.27;71.27
56400;BME280;42298;53.638;9.876;2022-10-18T05:45:03;102241.19;;;18.36;71.08
56400;BME280;42298;53.638;9.876;2022-10-18T05:47:29;102242.19;;;18.40;70.67
56400;BME280;42298;53.638;9.876;2022-10-18T05:49:54;102254.19;;;18.49;70.80
56400;BME280;42298;53.638;9.876;2022-10-18T05:52:19;102258.63;;;18.50;70.82
56400;BME280;42298;53.638;9.876;2022-10-18T05:54:44;102272.25;;;18.51;70.70
56400;BME280;42298;53.638;9.876;2022-10-18T05:57:10;102272.25;;;18.43;70.98
56400;BME280;42298;53.638;9.876;2022-10-18T05:59:35;102277.50;;;18.53;70.61
56400;BME280;42298;53.638;9.876;2022-10-18T06:02:01;102273.25;;;18.55;70.76
56400;BME280;42298;53.638;9.876;2022-10-18T06:04:26;102262.91;;;18.56;71.12
56400;BME280;42298;53.638;9.876;2022-10-18T06:06:54;102268.34;;;18.61;70.49
56400;BME280;42298;53.638;9.876;2022-10-18T06:09:20;102270.97;;;18.66;70.72
56400;BME280;42298;53.638;9.876;2022-10-18T06:11:45;102278.34;;;18.62;70.47
56400;BME280;42298;53.638;9.876;2022-10-18T06:14:11;102289.03;;;18.60;70.25
56400;BME280;42298;53.638;9.876;2022-10-18T06:16:36;102279.81;;;18.51;70.45
56400;BME280;42298;53.638;9.876;2022-10-18T06:19:01;102278.00;;;18.38;70.22
56400;BME280;42298;53.638;9.876;2022-10-18T06:21:27;102284.50;;;18.33;70.72
56400;BME280;42298;53.638;9.876;2022-10-18T06:23:55;102291.41;;;18.36;70.67
56400;BME280;42298;53.638;9.876;2022-10-18T06:26:21;102288.63;;;18.36;70.65
56400;BME280;42298;53.638;9.876;2022-10-18T06:28:48;102291.72;;;18.34;71.33
56400;BME280;42298;53.638;9.876;2022-10-18T06:31:14;102277.91;;;18.29;70.85
56400;BME280;42298;53.638;9.876;2022-10-18T06:33:40;102273.03;;;18.35;71.04
56400;BME280;42298;53.638;9.876;2022-10-18T06:36:19;102268.31;;;18.44;70.58
56400;BME280;42298;53.638;9.876;2022-10-18T06:38:48;102264.72;;;18.43;70.37
56400;BME280;42298;53.638;9.876;2022-10-18T06:41:14;102265.00;;;18.33;70.76
56400;BME280;42298;53.638;9.876;2022-10-18T06:43:39;102275.31;;;18.33;71.11
56400;BME280;42298;53.638;9.876;2022-10-18T06:46:06;102289.63;;;18.40;71.03
56400;BME280;42298;53.638;9.876;2022-10-18T06:48:37;102300.34;;;18.55;71.10
56400;BME280;42298;53.638;9.876;2022-10-18T06:51:05;102283.78;;;18.58;69.99
56400;BME280;42298;53.638;9.876;2022-10-18T06:53:36;102297.53;;;18.55;69.92
56400;BME280;42298;53.638;9.876;2022-10-18T06:56:07;102291.13;;;18.46;70.80
56400;BME280;42298;53.638;9.876;2022-10-18T06:58:34;102299.78;;;18.36;70.65
56400;BME280;42298;53.638;9.876;2022-10-18T07:01:13;102313.44;;;18.37;70.46
56400;BME280;42298;53.638;9.876;2022-10-18T07:03:40;102308.38;;;18.39;70.27
56400;BME280;42298;53.638;9.876;2022-10-18T07:06:09;102324.59;;;18.46;70.24
56400;BME280;42298;53.638;9.876;2022-10-18T07:08:36;102314.75;;;18.40;70.21
56400;BME280;42298;53.638;9.876;2022-10-18T07:11:01;102329.38;;;18.45;70.57
56400;BME280;42298;53.638;9.876;2022-10-18T07:13:28;102328.03;;;18.43;70.70
56400;BME280;42298;53.638;9.876;2022-10-18T07:16:23;102331.16;;;18.41;70.57
56400;BME280;42298;53.638;9.876;2022-10-18T07:18:50;102320.97;;;18.37;70.73
56400;BME280;42298;53.638;9.876;2022-10-18T07:21:21;102315.66;;;18.18;71.04
56400;BME280;42298;53.638;9.876;2022-10-18T07:23:49;102319.94;;;18.24;71.38
56400;BME280;42298;53.638;9.876;2022-10-18T07:26:29;102321.44;;;18.30;71.10
56400;BME280;42298;53.638;9.876;2022-10-18T07:28:57;102334.47;;;18.43;70.76
56400;BME280;42298;53.638;9.876;2022-10-18T07:31:24;102329.22;;;18.50;70.50
56400;BME280;42298;53.638;9.876;2022-10-18T07:33:50;102323.63;;;18.42;70.29
56400;BME280;42298;53.638;9.876;2022-10-18T07:36:16;102337.25;;;18.43;70.69
56400;BME280;42298;53.638;9.876;2022-10-18T07:38:41;102343.47;;;18.40;70.19
56400;BME280;42298;53.638;9.876;2022-10-18T07:41:09;102335.84;;;18.32;70.14
56400;BME280;42298;53.638;9.876;2022-10-18T07:43:36;102334.53;;;18.30;70.76
56400;BME280;42298;53.638;9.876;2022-10-18T07:46:03;102339.38;;;18.38;71.16
56400;BME280;42298;53.638;9.876;2022-10-18T07:48:29;102351.53;;;18.42;70.49
56400;BME280;42298;53.638;9.876;2022-10-18T07:50:58;102358.09;;;18.54;70.66
56400;BME280;42298;53.638;9.876;2022-10-18T07:53:24;102354.31;;;18.50;70.53
56400;BME280;42298;53.638;9.876;2022-10-18T07:55:49;102347.13;;;18.49;70.72
56400;BME280;42298;53.638;9.876;2022-10-18T07:58:14;102315.47;;;18.23;70.30
56400;BME280;42298;53.638;9.876;2022-10-18T08:00:42;102314.84;;;18.26;70.24
56400;BME280;42298;53.638;9.876;2022-10-18T08:03:07;102358.75;;;18.51;70.78
56400;BME280;42298;53.638;9.876;2022-10-18T08:05:33;102329.88;;;18.47;70.37
56400;BME280;42298;53.638;9.876;2022-10-18T08:07:58;102349.56;;;18.51;70.04
56400;BME280;42298;53.638;9.876;2022-10-18T08:10:23;102318.31;;;18.32;70.61
56400;BME280;42298;53.638;9.876;2022-10-18T08:15:24;102332.13;;;18.37;70.15
56400;BME280;42298;53.638;9.876;2022-10-18T08:17:50;102339.22;;;18.51;71.44
56400;BME280;42298;53.638;9.876;2022-10-18T08:20:16;102320.50;;;18.52;70.73
56400;BME280;42298;53.638;9.876;2022-10-18T08:22:41;102303.75;;;18.43;69.64
56400;BME280;42298;53.638;9.876;2022-10-18T08:25:06;102340.75;;;18.66;69.90
56400;BME280;42298;53.638;9.876;2022-10-18T08:27:32;102332.53;;;18.69;69.93
56400;BME280;42298;53.638;9.876;2022-10-18T08:29:57;102344.00;;;18.68;69.94
56400;BME280;42298;53.638;9.876;2022-10-18T08:32:24;102347.00;;;18.80;69.46
56400;BME280;42298;53.638;9.876;2022-10-18T08:34:50;102336.34;;;18.82;69.45
56400;BME280;42298;53.638;9.876;2022-10-18T08:37:15;102324.19;;;18.86;69.03
56400;BME280;42298;53.638;9.876;2022-10-18T08:39:40;102307.09;;;18.79;69.00
56400;BME280;42298;53.638;9.876;2022-10-18T08:42:33;102340.47;;;19.02;68.17
56400;BME280;42298;53.638;9.876;2022-10-18T08:45:03;102328.78;;;18.91;68.52
56400;BME280;42298;53.638;9.876;2022-10-18T08:47:39;102331.41;;;18.87;68.39
56400;BME280;42298;53.638;9.876;2022-10-18T08:50:14;102358.53;;;18.87;68.89
56400;BME280;42298;53.638;9.876;2022-10-18T08:55:21;102346.84;;;18.85;68.46
56400;BME280;42298;53.638;9.876;2022-10-18T08:57:50;102343.88;;;18.81;68.46
56400;BME280;42298;53.638;9.876;2022-10-18T09:00:18;102336.00;;;18.92;68.49
56400;BME280;42298;53.638;9.876;2022-10-18T09:05:35;102376.66;;;19.32;67.85
56400;BME280;42298;53.638;9.876;2022-10-18T09:08:29;102366.41;;;19.53;67.20
56400;BME280;42298;53.638;9.876;2022-10-18T09:11:36;102384.34;;;19.61;66.76
56400;BME280;42298;53.638;9.876;2022-10-18T09:22:00;102356.72;;;20.22;64.12
56400;BME280;42298;53.638;9.876;2022-10-18T09:24:40;102359.09;;;20.03;63.63
56400;BME280;42298;53.638;9.876;2022-10-18T09:27:19;102362.50;;;20.09;64.01
56400;BME280;42298;53.638;9.876;2022-10-18T09:30:05;102332.41;;;20.14;64.63
56400;BME280;42298;53.638;9.876;2022-10-18T09:32:58;102374.06;;;20.45;63.15
56400;BME280;42298;53.638;9.876;2022-10-18T09:38:09;102382.03;;;20.34;63.87
56400;BME280;42298;53.638;9.876;2022-10-18T09:40:46;102355.63;;;20.06;62.43
56400;BME280;42298;53.638;9.876;2022-10-18T09:43:21;102361.88;;;20.03;63.30
56400;BME280;42298;53.638;9.876;2022-10-18T09:45:48;102373.16;;;20.32;64.21
56400;BME280;42298;53.638;9.876;2022-10-18T09:51:11;102360.13;;;20.65;62.42
56400;BME280;42298;53.638;9.876;2022-10-18T09:59:02;102348.25;;;20.68;61.24
56400;BME280;42298;53.638;9.876;2022-10-18T10:01:29;102349.16;;;20.81;61.14
56400;BME280;42298;53.638;9.876;2022-10-18T10:03:55;102361.81;;;20.87;61.13
56400;BME280;42298;53.638;9.876;2022-10-18T10:06:31;102361.09;;;20.99;61.32
56400;BME280;42298;53.638;9.876;2022-10-18T10:09:19;102357.03;;;20.88;59.48
56400;BME280;42298;53.638;9.876;2022-10-18T10:11:47;102330.63;;;20.47;60.17
56400;BME280;42298;53.638;9.876;2022-10-18T10:14:18;102346.13;;;20.36;60.44
56400;BME280;42298;53.638;9.876;2022-10-18T10:16:54;102364.44;;;20.34;61.09
56400;BME280;42298;53.638;9.876;2022-10-18T10:19:26;102342.91;;;20.09;61.02
56400;BME280;42298;53.638;9.876;2022-10-18T10:21:56;102364.81;;;20.15;60.81
56400;BME280;42298;53.638;9.876;2022-10-18T10:24:28;102341.53;;;19.86;61.42
56400;BME280;42298;53.638;9.876;2022-10-18T10:27:03;102339.94;;;19.68;60.82
56400;BME280;42298;53.638;9.876;2022-10-18T10:32:12;102381.28;;;20.08;61.56
56400;BME280;42298;53.638;9.876;2022-10-18T10:34:38;102339.00;;;20.01;60.71
56400;BME280;42298;53.638;9.876;2022-10-18T10:37:22;102385.59;;;20.43;59.69
56400;BME280;42298;53.638;9.876;2022-10-18T10:42:32;102379.78;;;20.86;59.32
56400;BME280;42298;53.638;9.876;2022-10-18T10:44:59;102385.34;;;21.15;59.04
56400;BME280;42298;53.638;9.876;2022-10-18T10:47:32;102374.88;;;21.24;58.14
56400;BME280;42298;53.638;9.876;2022-10-18T10:50:09;102366.19;;;21.38;57.85
56400;BME280;42298;53.638;9.876;2022-10-18T10:52:36;102390.91;;;21.44;55.82
56400;BME280;42298;53.638;9.876;2022-10-18T10:55:04;102360.00;;;21.12;56.97
56400;BME280;42298;53.638;9.876;2022-10-18T10:57:30;102398.06;;;21.13;56.70
56400;BME280;42298;53.638;9.876;2022-10-18T10:59:57;102379.47;;;21.08;57.16
56400;BME280;42298;53.638;9.876;2022-10-18T11:02:33;102395.50;;;21.28;57.87
56400;BME280;42298;53.638;9.876;2022-10-18T11:05:22;102369.06;;;21.50;57.17
56400;BME280;42298;53.638;9.876;2022-10-18T11:07:51;102372.31;;;21.72;57.10
56400;BME280;42298;53.638;9.876;2022-10-18T11:10:22;102401.56;;;22.16;56.02
56400;BME280;42298;53.638;9.876;2022-10-18T11:12:57;102379.88;;;21.92;54.44
56400;BME280;42298;53.638;9.876;2022-10-18T11:15:38;102405.72;;;21.65;53.91
56400;BME280;42298;53.638;9.876;2022-10-18T11:18:24;102388.38;;;21.10;55.71
56400;BME280;42298;53.638;9.876;2022-10-18T11:21:16;102406.94;;;20.86;55.83
56400;BME280;42298;53.638;9.876;2022-10-18T11:23:44;102398.28;;;20.78;56.93
56400;BME280;42298;53.638;9.876;2022-10-18T11:41:54;102398.91;;;21.13;54.71
56400;BME280;42298;53.638;9.876;2022-10-18T11:44:38;102392.28;;;20.89;54.65
56400;BME280;42298;53.638;9.876;2022-10-18T11:47:23;102392.69;;;20.78;55.63
56400;BME280;42298;53.638;9.876;2022-10-18T11:56:19;102374.41;;;21.43;55.79
56400;BME280;42298;53.638;9.876;2022-10-18T12:01:39;102360.00;;;21.32;53.55
56400;BME280;42298;53.638;9.876;2022-10-18T12:04:13;102379.28;;;21.34;53.57
56400;BME280;42298;53.638;9.876;2022-10-18T12:06:44;102396.25;;;21.37;53.92
56400;BME280;42298;53.638;9.876;2022-10-18T12:09:44;102384.81;;;21.22;51.54
56400;BME280;42298;53.638;9.876;2022-10-18T12:12:27;102377.00;;;21.07;52.86
56400;BME280;42298;53.638;9.876;2022-10-18T12:14:57;102356.59;;;20.77;52.73
56400;BME280;42298;53.638;9.876;2022-10-18T12:17:33;102383.59;;;20.82;52.51
56400;BME280;42298;53.638;9.876;2022-10-18T12:20:04;102380.72;;;20.61;52.41
56400;BME280;42298;53.638;9.876;2022-10-18T12:22:36;102376.13;;;20.56;53.02
56400;BME280;42298;53.638;9.876;2022-10-18T12:25:03;102360.63;;;20.38;54.44
56400;BME280;42298;53.638;9.876;2022-10-18T12:27:51;102355.59;;;20.52;53.99
56400;BME280;42298;53.638;9.876;2022-10-18T12:30:27;102352.06;;;20.64;55.01
56400;BME280;42298;53.638;9.876;2022-10-18T12:33:04;102381.25;;;20.83;53.62
56400;BME280;42298;53.638;9.876;2022-10-18T12:35:41;102342.53;;;20.56;52.93
56400;BME280;42298;53.638;9.876;2022-10-18T12:38:17;102351.16;;;20.51;52.96
56400;BME280;42298;53.638;9.876;2022-10-18T12:40:55;102346.09;;;20.45;53.21
56400;BME280;42298;53.638;9.876;2022-10-18T12:46:14;102344.72;;;20.22;53.63
56400;BME280;42298;53.638;9.876;2022-10-18T12:48:42;102382.97;;;20.47;54.30
56400;BME280;42298;53.638;9.876;2022-10-18T12:51:20;102353.41;;;20.29;53.77
56400;BME280;42298;53.638;9.876;2022-10-18T13:09:41;102373.19;;;20.24;54.00
56400;BME280;42298;53.638;9.876;2022-10-18T13:14:59;102379.22;;;20.43;54.51
56400;BME280;42298;53.638;9.876;2022-10-18T13:20:29;102381.31;;;20.75;53.04
56400;BME280;42298;53.638;9.876;2022-10-18T13:26:24;102377.59;;;20.62;52.97
56400;BME280;42298;53.638;9.876;2022-10-18T13:29:20;102382.09;;;20.55;53.26
56400;BME280;42298;53.638;9.876;2022-10-18T13:31:58;102384.38;;;20.61;52.93
56400;BME280;42298;53.638;9.876;2022-10-18T13:34:30;102357.59;;;20.52;52.60
56400;BME280;42298;53.638;9.876;2022-10-18T13:40:14;102335.47;;;20.59;52.08
56400;BME280;42298;53.638;9.876;2022-10-18T13:42:48;102355.25;;;20.83;53.52
56400;BME280;42298;53.638;9.876;2022-10-18T13:51:24;102371.69;;;21.34;51.44
56400;BME280;42298;53.638;9.876;2022-10-18T14:00:28;102382.78;;;21.10;52.68
56400;BME280;42298;53.638;9.876;2022-10-18T14:09:10;102367.66;;;20.73;52.88
56400;BME280;42298;53.638;9.876;2022-10-18T14:11:49;102377.75;;;20.66;53.27
56400;BME280;42298;53.638;9.876;2022-10-18T14:19:20;102393.09;;;20.31;53.11
56400;BME280;42298;53.638;9.876;2022-10-18T14:21:52;102394.44;;;20.25;53.82
56400;BME280;42298;53.638;9.876;2022-10-18T14:24:23;102390.50;;;20.17;54.54
56400;BME280;42298;53.638;9.876;2022-10-18T14:27:09;102414.03;;;20.08;54.85
56400;BME280;42298;53.638;9.876;2022-10-18T14:29:37;102375.75;;;19.74;55.49
56400;BME280;42298;53.638;9.876;2022-10-18T14:32:07;102399.28;;;19.82;55.99
56400;BME280;42298;53.638;9.876;2022-10-18T14:34:33;102415.56;;;19.71;56.41
56400;BME280;42298;53.638;9.876;2022-10-18T14:36:59;102400.78;;;19.62;56.39
56400;BME280;42298;53.638;9.876;2022-10-18T14:39:25;102404.09;;;19.56;56.76
56400;BME280;42298;53.638;9.876;2022-10-18T14:41:55;102406.38;;;19.54;56.59
56400;BME280;42298;53.638;9.876;2022-10-18T14:44:28;102404.75;;;19.53;57.46
56400;BME280;42298;53.638;9.876;2022-10-18T14:49:20;102401.63;;;19.37;57.17
56400;BME280;42298;53.638;9.876;2022-10-18T14:51:57;102404.44;;;19.46;56.76
56400;BME280;42298;53.638;9.876;2022-10-18T14:54:31;102394.69;;;19.26;55.94
56400;BME280;42298;53.638;9.876;2022-10-18T14:56:59;102384.50;;;19.13;54.95
56400;BME280;42298;53.638;9.876;2022-10-18T14:59:30;102408.66;;;19.26;55.68
56400;BME280;42298;53.638;9.876;2022-10-18T15:02:02;102411.97;;;19.28;55.26
56400;BME280;42298;53.638;9.876;2022-10-18T15:04:33;102385.50;;;19.17;55.47
56400;BME280;42298;53.638;9.876;2022-10-18T15:07:00;102408.38;;;19.36;56.25
56400;BME280;42298;53.638;9.876;2022-10-18T15:09:27;102407.38;;;19.41;55.98
56400;BME280;42298;53.638;9.876;2022-10-18T15:11:53;102378.25;;;19.16;55.47
56400;BME280;42298;53.638;9.876;2022-10-18T15:14:22;102411.63;;;19.30;56.53
56400;BME280;42298;53.638;9.876;2022-10-18T15:16:50;102377.75;;;19.06;56.46
56400;BME280;42298;53.638;9.876;2022-10-18T15:19:28;102386.94;;;19.06;56.21
56400;BME280;42298;53.638;9.876;2022-10-18T15:22:02;102382.16;;;18.98;56.85
56400;BME280;42298;53.638;9.876;2022-10-18T15:24:31;102405.19;;;19.12;56.81